Time;durP1;ratioP1;P1;durP2;ratioP2;P2;SDS_P1;SDS_P2;PMS_P1;PMS_P2;Temp;Humidity;BMP_temperature;BMP_pressure;BME280_temperature;BME280_humidity;BME280_pressure;Samples;Min_cycle;Max_cycle;Signal;HPM_P1;HPM_P2
2021/05/20 00:00:24;;;;;;;0.70;0.70;;;16.40;57.40;;;;;;5142679;27;20445;-40
2021/05/20 00:02:55;;;;;;;0.80;0.80;;;16.40;58.90;;;;;;5144346;27;20436;-38
2021/05/20 00:05:28;;;;;;;0.70;0.70;;;16.30;59.90;;;;;;5144200;27;20442;-39
2021/05/20 00:07:59;;;;;;;1.93;0.90;;;16.10;61.40;;;;;;5145091;27;20476;-40
2021/05/20 00:10:30;;;;;;;0.90;0.77;;;16.10;62.60;;;;;;5142638;27;20449;-40
2021/05/20 00:13:01;;;;;;;0.80;0.50;;;15.90;60.10;;;;;;5144908;27;20491;-39
2021/05/20 00:15:32;;;;;;;1.73;0.83;;;16.00;58.50;;;;;;5144233;27;20448;-39
2021/05/20 00:18:03;;;;;;;0.70;0.70;;;15.80;58.60;;;;;;5145213;27;20545;-40
2021/05/20 00:20:34;;;;;;;1.07;1.03;;;15.90;59.10;;;;;;5144347;27;20460;-40
2021/05/20 00:23:06;;;;;;;0.97;0.83;;;16.00;59.30;;;;;;5145039;27;20448;-38
2021/05/20 00:25:37;;;;;;;1.20;0.90;;;16.00;59.30;;;;;;5144823;27;20789;-39
2021/05/20 00:28:08;;;;;;;0.70;0.70;;;15.90;59.50;;;;;;5139456;27;20483;-40
2021/05/20 00:30:39;;;;;;;0.90;0.90;;;15.80;60.90;;;;;;5143019;27;20453;-40
2021/05/20 00:33:10;;;;;;;0.90;0.90;;;15.50;61.10;;;;;;5144059;27;20483;-39
2021/05/20 00:35:41;;;;;;;1.00;1.00;;;15.30;61.70;;;;;;5144103;27;20449;-39
2021/05/20 00:38:12;;;;;;;0.77;0.77;;;15.10;62.80;;;;;;5144431;27;20449;-40
2021/05/20 00:40:44;;;;;;;1.73;0.93;;;15.10;64.50;;;;;;5143928;27;20455;-38
2021/05/20 00:43:15;;;;;;;1.07;0.97;;;15.10;64.30;;;;;;5139740;27;20463;-40
2021/05/20 00:45:46;;;;;;;1.53;0.90;;;15.00;65.80;;;;;;5143381;27;20449;-37
2021/05/20 00:48:17;;;;;;;2.43;1.23;;;15.10;65.50;;;;;;5143908;27;20909;-40
2021/05/20 00:50:48;;;;;;;1.30;0.87;;;15.00;64.50;;;;;;5143939;27;20453;-39
2021/05/20 00:53:18;;;;;;;1.07;0.97;;;14.90;63.80;;;;;;5144398;27;20484;-38
2021/05/20 00:55:51;;;;;;;0.80;0.80;;;14.80;63.80;;;;;;5143659;27;20453;-40
2021/05/20 00:58:23;;;;;;;1.50;1.10;;;14.80;64.80;;;;;;5144010;27;20441;-41
2021/05/20 01:00:55;;;;;;;0.70;0.70;;;14.90;64.70;;;;;;5142704;27;20445;-39
2021/05/20 01:03:26;;;;;;;2.40;1.10;;;15.10;61.60;;;;;;5144519;27;20445;-40
2021/05/20 01:05:56;;;;;;;2.27;1.43;;;15.20;60.80;;;;;;5139473;27;20453;-41
2021/05/20 01:08:27;;;;;;;1.10;0.90;;;15.20;61.70;;;;;;5137878;27;20449;-40
2021/05/20 01:11:00;;;;;;;1.33;0.97;;;15.20;63.00;;;;;;5143521;27;20472;-42
2021/05/20 01:13:32;;;;;;;1.00;0.70;;;15.10;65.30;;;;;;5142646;27;20480;-42
2021/05/20 01:16:10;;;;;;;0.80;0.80;;;14.90;68.00;;;;;;5143852;27;20440;-40
2021/05/20 01:18:40;;;;;;;1.23;0.93;;;14.80;66.90;;;;;;5143907;27;20440;-40
2021/05/20 01:21:12;;;;;;;1.30;0.87;;;14.80;66.70;;;;;;5143050;27;20474;-41
2021/05/20 01:23:43;;;;;;;3.03;1.00;;;14.60;67.50;;;;;;5143394;27;20504;-38
2021/05/20 01:26:14;;;;;;;0.80;0.80;;;14.40;67.20;;;;;;5142192;27;20461;-39
2021/05/20 01:28:45;;;;;;;5.10;1.00;;;14.40;68.10;;;;;;5142514;27;20464;-41
2021/05/20 01:31:16;;;;;;;1.77;0.80;;;14.30;70.30;;;;;;5142780;27;20490;-39
2021/05/20 01:33:46;;;;;;;1.60;1.03;;;14.10;71.60;;;;;;5142603;27;20502;-40
2021/05/20 01:36:26;;;;;;;2.00;0.67;;;14.20;72.10;;;;;;5144144;28;20445;-41
2021/05/20 01:39:00;;;;;;;1.40;0.73;;;14.20;70.90;;;;;;5143003;28;20912;-40
2021/05/20 01:41:31;;;;;;;1.20;1.10;;;14.00;70.90;;;;;;5142595;28;20444;-40
2021/05/20 01:44:02;;;;;;;1.50;1.00;;;13.90;71.20;;;;;;5141977;28;20449;-40
2021/05/20 01:46:32;;;;;;;2.47;0.97;;;13.80;72.80;;;;;;5143603;28;20445;-41
2021/05/20 01:49:09;;;;;;;1.60;0.70;;;13.60;73.20;;;;;;5143258;27;20848;-41
2021/05/20 01:51:42;;;;;;;1.27;0.90;;;13.60;72.80;;;;;;5142704;28;20938;-41
2021/05/20 01:54:12;;;;;;;3.10;1.20;;;13.70;73.70;;;;;;5142959;28;20509;-40
2021/05/20 01:56:43;;;;;;;2.30;0.90;;;13.70;74.20;;;;;;5143463;28;20452;-40
2021/05/20 01:59:14;;;;;;;0.90;0.90;;;13.70;73.10;;;;;;5140940;28;20441;-40
2021/05/20 02:01:45;;;;;;;1.77;1.10;;;13.60;74.10;;;;;;5142464;28;20540;-42
2021/05/20 02:04:16;;;;;;;0.80;0.80;;;13.70;74.10;;;;;;5142990;28;20553;-40
2021/05/20 02:06:48;;;;;;;1.77;0.83;;;13.70;72.80;;;;;;5142602;28;20559;-40
2021/05/20 02:09:18;;;;;;;1.20;0.80;;;13.60;74.20;;;;;;5142833;28;20453;-41
2021/05/20 02:11:49;;;;;;;1.83;0.80;;;13.70;73.90;;;;;;5142200;28;20460;-40
2021/05/20 02:14:19;;;;;;;1.20;1.10;;;13.70;74.00;;;;;;5141531;28;20504;-41
2021/05/20 02:16:50;;;;;;;1.03;0.93;;;13.70;73.70;;;;;;5140500;28;20772;-40
2021/05/20 02:19:21;;;;;;;2.57;1.00;;;13.70;74.90;;;;;;5142840;28;20759;-39
2021/05/20 02:21:52;;;;;;;2.07;1.00;;;13.70;74.50;;;;;;5142366;28;20449;-40
2021/05/20 02:24:23;;;;;;;0.80;0.80;;;13.70;74.90;;;;;;5142409;28;20553;-40
2021/05/20 02:26:54;;;;;;;2.23;1.23;;;13.60;74.70;;;;;;5145473;27;20457;-40
2021/05/20 02:29:24;;;;;;;1.20;0.93;;;13.50;75.70;;;;;;5145713;27;20448;-40
2021/05/20 02:31:56;;;;;;;2.30;1.10;;;13.50;76.80;;;;;;5146114;27;20497;-40
2021/05/20 02:34:27;;;;;;;2.47;1.33;;;13.50;76.70;;;;;;5145656;27;20529;-40
2021/05/20 02:36:58;;;;;;;0.93;0.93;;;13.50;76.40;;;;;;5146879;27;20445;-41
2021/05/20 02:39:29;;;;;;;1.13;0.80;;;13.40;77.80;;;;;;5145985;27;20449;-41
2021/05/20 02:42:00;;;;;;;1.23;1.13;;;13.30;79.60;;;;;;5145979;27;20927;-40
2021/05/20 02:44:30;;;;;;;1.63;1.10;;;13.10;81.80;;;;;;5144968;27;20455;-40
2021/05/20 02:47:01;;;;;;;1.47;1.10;;;12.90;82.90;;;;;;5146777;27;20828;-38
2021/05/20 02:49:51;;;;;;;1.97;1.20;;;12.80;83.30;;;;;;5145894;27;20445;-40
2021/05/20 02:52:23;;;;;;;1.85;0.90;;;12.60;85.40;;;;;;5146248;27;20924;-40
2021/05/20 02:54:54;;;;;;;0.90;0.90;;;12.50;86.90;;;;;;5145826;27;20246;-40
2021/05/20 02:57:26;;;;;;;1.15;1.05;;;12.30;88.30;;;;;;5146297;27;20260;-40
2021/05/20 02:59:57;;;;;;;1.55;1.45;;;12.20;89.60;;;;;;5130940;27;20240;-42
2021/05/20 03:02:27;;;;;;;0.95;0.95;;;12.10;90.20;;;;;;5145607;27;20203;-40
2021/05/20 03:04:58;;;;;;;1.10;1.00;;;12.10;90.10;;;;;;5141341;27;20199;-40
2021/05/20 03:07:30;;;;;;;1.20;0.80;;;12.10;90.10;;;;;;5145613;27;20274;-36
2021/05/20 03:10:01;;;;;;;1.40;1.00;;;12.00;90.20;;;;;;5145798;27;20220;-40
2021/05/20 03:12:31;;;;;;;2.97;1.00;;;11.90;90.70;;;;;;5137335;27;20441;-38
2021/05/20 03:15:03;;;;;;;1.02;1.00;;;11.90;91.50;;;;;;5144000;27;20252;-42
2021/05/20 03:17:34;;;;;;;0.95;0.85;;;11.90;91.90;;;;;;5145420;27;20232;-39
2021/05/20 03:20:05;;;;;;;1.10;1.00;;;11.90;92.50;;;;;;5136616;27;20184;-40
2021/05/20 03:22:38;;;;;;;2.05;1.25;;;11.90;93.20;;;;;;5145597;27;20252;-40
2021/05/20 03:25:10;;;;;;;0.88;0.88;;;11.90;94.40;;;;;;5144944;27;20227;-39
2021/05/20 03:27:41;;;;;;;0.75;0.75;;;11.90;96.30;;;;;;5141906;27;20523;-40
2021/05/20 03:30:13;;;;;;;2.10;0.88;;;11.80;96.10;;;;;;5134482;27;20191;-41
2021/05/20 03:32:43;;;;;;;1.10;1.10;;;11.70;97.20;;;;;;5145306;27;20202;-38
2021/05/20 03:35:14;;;;;;;1.67;1.00;;;11.70;97.50;;;;;;5145814;27;20552;-41
2021/05/20 03:37:47;;;;;;;0.80;0.80;;;11.60;98.30;;;;;;5144980;27;20260;-40
2021/05/20 03:40:17;;;;;;;0.80;0.80;;;11.50;98.00;;;;;;5142126;27;20199;-40
2021/05/20 03:42:48;;;;;;;1.70;0.90;;;11.50;98.20;;;;;;5142738;27;20580;-38
2021/05/20 03:45:18;;;;;;;1.77;1.17;;;11.50;98.60;;;;;;5144498;27;20294;-39
2021/05/20 03:47:49;;;;;;;1.17;1.08;;;11.40;98.90;;;;;;5145656;27;20231;-39
2021/05/20 03:50:21;;;;;;;2.22;1.15;;;11.30;99.50;;;;;;5144875;27;20195;-40
2021/05/20 03:52:53;;;;;;;2.03;1.25;;;11.20;99.80;;;;;;5144917;27;20738;-41
2021/05/20 03:55:23;;;;;;;1.20;1.10;;;11.20;99.90;;;;;;5144989;27;20748;-40
2021/05/20 03:57:54;;;;;;;1.38;0.85;;;11.30;99.90;;;;;;5145206;27;20218;-39
2021/05/20 04:00:25;;;;;;;1.02;1.00;;;11.20;99.90;;;;;;5142880;27;20199;-38
2021/05/20 04:02:56;;;;;;;1.30;1.20;;;11.10;99.90;;;;;;5145082;27;20274;-38
2021/05/20 04:05:27;;;;;;;1.20;1.10;;;11.10;99.90;;;;;;5144975;27;20225;-40
2021/05/20 04:07:59;;;;;;;1.67;1.42;;;11.00;99.90;;;;;;5142511;27;20220;-37
2021/05/20 04:10:30;;;;;;;1.77;1.40;;;11.00;99.90;;;;;;5144770;27;20221;-39
2021/05/20 04:13:02;;;;;;;1.02;1.00;;;10.90;99.90;;;;;;5144598;27;20200;-38
2021/05/20 04:15:33;;;;;;;1.45;1.35;;;10.90;99.90;;;;;;5143595;27;20234;-41
2021/05/20 04:18:04;;;;;;;1.75;1.10;;;10.90;99.90;;;;;;5142198;27;20594;-39
2021/05/20 04:20:34;;;;;;;1.20;1.08;;;10.90;99.90;;;;;;5142976;27;20256;-38
2021/05/20 04:23:06;;;;;;;1.20;1.10;;;10.90;99.90;;;;;;5144320;27;20195;-39
2021/05/20 04:25:36;;;;;;;2.17;1.73;;;10.90;99.90;;;;;;5144234;27;20206;-39
2021/05/20 04:28:08;;;;;;;1.58;1.15;;;10.90;99.90;;;;;;5141883;27;20214;-39
2021/05/20 04:30:38;;;;;;;1.83;1.55;;;10.90;99.90;;;;;;5143315;27;20196;-38
2021/05/20 04:33:09;;;;;;;2.15;1.90;;;10.80;99.90;;;;;;5144469;27;20244;-38
2021/05/20 04:35:41;;;;;;;1.67;1.40;;;10.70;99.90;;;;;;5144299;27;20256;-40
2021/05/20 04:38:13;;;;;;;1.40;1.30;;;10.70;99.90;;;;;;5144285;27;20199;-38
2021/05/20 04:40:43;;;;;;;1.38;1.20;;;10.70;99.90;;;;;;5142885;27;20213;-39
2021/05/20 04:43:14;;;;;;;1.88;1.40;;;10.60;99.90;;;;;;5143050;27;20298;-38
2021/05/20 04:45:46;;;;;;;2.40;1.52;;;10.60;99.90;;;;;;5144324;27;20252;-39
2021/05/20 04:48:17;;;;;;;1.52;1.42;;;10.50;99.90;;;;;;5142523;27;20287;-37
2021/05/20 04:50:48;;;;;;;1.88;1.50;;;10.50;99.90;;;;;;5144180;27;20207;-38
2021/05/20 04:53:20;;;;;;;2.78;2.40;;;10.50;99.90;;;;;;5143981;27;20234;-37
2021/05/20 04:55:51;;;;;;;1.73;1.60;;;10.50;99.90;;;;;;5143322;27;20209;-39
2021/05/20 04:58:23;;;;;;;2.10;1.60;;;10.50;99.90;;;;;;5142347;27;20206;-39
2021/05/20 05:00:55;;;;;;;1.63;1.52;;;10.40;99.90;;;;;;5143394;27;20215;-39
2021/05/20 05:03:27;;;;;;;1.33;1.23;;;10.40;99.90;;;;;;5143828;27;20199;-38
2021/05/20 05:05:59;;;;;;;1.73;1.63;;;10.30;99.90;;;;;;5144442;27;20763;-37
2021/05/20 05:08:32;;;;;;;1.45;1.35;;;10.30;99.90;;;;;;5142835;27;20227;-40
2021/05/20 05:11:02;;;;;;;2.33;1.60;;;10.20;99.90;;;;;;5143180;27;20195;-38
2021/05/20 05:13:33;;;;;;;2.70;1.85;;;10.20;99.90;;;;;;5142806;27;20227;-39
2021/05/20 05:16:04;;;;;;;1.92;1.58;;;10.20;99.90;;;;;;5144651;27;20196;-40
2021/05/20 05:18:34;;;;;;;2.42;1.67;;;10.10;99.90;;;;;;5143358;27;20203;-38
2021/05/20 05:21:05;;;;;;;1.48;1.30;;;10.10;99.90;;;;;;5143728;27;20213;-37
2021/05/20 05:23:38;;;;;;;1.77;1.40;;;10.20;99.90;;;;;;5142993;27;20582;-40
2021/05/20 05:26:11;;;;;;;2.17;1.50;;;10.20;99.90;;;;;;5140946;27;20207;-35
2021/05/20 05:28:43;;;;;;;2.20;1.55;;;10.20;99.90;;;;;;5139221;27;20191;-36
2021/05/20 05:31:18;;;;;;;2.50;1.60;;;10.20;99.90;;;;;;5125763;27;20207;-39
2021/05/20 05:33:49;;;;;;;1.70;1.60;;;10.20;99.90;;;;;;5142734;27;20294;-38
2021/05/20 05:36:20;;;;;;;2.42;1.50;;;10.10;99.90;;;;;;5143384;27;20198;-37
2021/05/20 05:38:52;;;;;;;2.25;1.80;;;10.10;99.90;;;;;;5143283;28;20203;-38
2021/05/20 05:41:23;;;;;;;1.95;1.40;;;10.10;99.90;;;;;;5143203;28;20199;-38
2021/05/20 05:43:54;;;;;;;3.53;1.65;;;10.20;99.90;;;;;;5142748;28;20255;-38
2021/05/20 05:46:24;;;;;;;2.45;1.70;;;10.20;99.90;;;;;;5143982;28;20188;-39
2021/05/20 05:49:10;;;;;;;1.70;1.60;;;10.20;99.90;;;;;;5141582;28;20235;-36
2021/05/20 05:51:45;;;;;;;2.40;2.00;;;10.20;99.90;;;;;;5143916;28;20195;-39
2021/05/20 05:54:16;;;;;;;2.30;1.33;;;10.20;99.90;;;;;;5143206;28;20233;-39
2021/05/20 05:56:47;;;;;;;1.88;1.52;;;10.10;99.90;;;;;;5143778;28;20259;-32
2021/05/20 05:59:18;;;;;;;2.42;1.58;;;9.90;99.90;;;;;;5142483;28;20237;-38
2021/05/20 06:01:49;;;;;;;1.85;1.75;;;9.90;99.90;;;;;;5145707;27;20220;-34
2021/05/20 06:04:20;;;;;;;1.58;1.48;;;9.80;99.90;;;;;;5147351;27;20219;-36
2021/05/20 06:06:51;;;;;;;2.72;1.70;;;9.80;99.90;;;;;;5147278;27;20199;-38
2021/05/20 06:09:22;;;;;;;2.05;1.85;;;9.80;99.90;;;;;;5147007;27;20195;-35
2021/05/20 06:11:53;;;;;;;2.22;1.70;;;9.80;99.90;;;;;;5146899;27;20667;-37
2021/05/20 06:14:24;;;;;;;2.30;1.60;;;9.70;99.90;;;;;;5144935;27;20240;-38
2021/05/20 06:16:55;;;;;;;2.38;2.17;;;9.60;99.90;;;;;;5148030;27;20195;-35
2021/05/20 06:19:25;;;;;;;4.03;1.90;;;9.60;99.90;;;;;;5146687;27;20203;-35
2021/05/20 06:21:56;;;;;;;2.38;1.85;;;9.40;99.90;;;;;;5146814;27;20225;-31
2021/05/20 06:24:28;;;;;;;1.83;1.73;;;9.40;99.90;;;;;;5146326;27;20209;-36
2021/05/20 06:26:59;;;;;;;2.33;1.90;;;9.30;99.90;;;;;;5146766;27;20260;-38
2021/05/20 06:29:29;;;;;;;4.70;1.75;;;9.30;99.90;;;;;;5145747;27;20195;-37
2021/05/20 06:32:00;;;;;;;1.77;1.67;;;9.30;99.90;;;;;;5147141;27;20255;-37
2021/05/20 06:34:30;;;;;;;2.58;1.80;;;9.30;99.90;;;;;;5146351;27;20223;-37
2021/05/20 06:37:02;;;;;;;2.20;2.00;;;9.30;99.90;;;;;;5146607;27;20211;-38
2021/05/20 06:39:34;;;;;;;2.30;2.08;;;9.30;99.90;;;;;;5145604;27;20195;-36
2021/05/20 06:42:05;;;;;;;3.80;2.30;;;9.30;99.90;;;;;;5146898;27;20195;-35
2021/05/20 06:44:36;;;;;;;3.40;2.10;;;9.30;99.90;;;;;;5145593;27;20198;-36
2021/05/20 06:47:08;;;;;;;2.58;2.38;;;9.40;99.90;;;;;;5141983;27;20288;-36
2021/05/20 06:49:38;;;;;;;2.40;2.13;;;9.40;99.90;;;;;;5146421;27;20202;-38
2021/05/20 06:52:09;;;;;;;2.38;2.10;;;9.50;99.90;;;;;;5146215;27;20286;-37
2021/05/20 06:54:41;;;;;;;2.70;2.25;;;9.60;99.90;;;;;;5145376;27;20291;-37
2021/05/20 06:57:20;;;;;;;3.42;2.05;;;9.60;99.90;;;;;;5146797;27;20332;-38
2021/05/20 06:59:57;;;;;;;2.35;2.15;;;9.70;99.90;;;;;;5145437;27;20198;-35
2021/05/20 07:02:28;;;;;;;2.20;2.00;;;9.70;99.90;;;;;;5146802;27;20324;-36
2021/05/20 07:04:59;;;;;;;2.65;2.00;;;9.70;99.90;;;;;;5145393;27;20195;-36
2021/05/20 07:07:31;;;;;;;2.78;2.22;;;9.70;99.90;;;;;;5144711;27;20195;-38
2021/05/20 07:10:04;;;;;;;3.97;2.40;;;9.60;99.90;;;;;;5145610;27;20191;-38
2021/05/20 07:12:34;;;;;;;2.83;2.10;;;9.60;99.90;;;;;;5146181;27;20267;-36
2021/05/20 07:15:06;;;;;;;2.85;2.60;;;9.60;99.90;;;;;;5144788;27;20280;-37
2021/05/20 07:17:36;;;;;;;3.58;2.20;;;9.70;99.90;;;;;;5146617;27;20191;-37
2021/05/20 07:20:09;;;;;;;2.30;2.00;;;9.60;99.90;;;;;;5144694;27;20298;-35
2021/05/20 07:22:39;;;;;;;4.30;2.65;;;9.50;99.90;;;;;;5146164;27;20562;-37
2021/05/20 07:25:13;;;;;;;2.40;2.20;;;9.50;99.90;;;;;;5145185;27;20231;-36
2021/05/20 07:27:44;;;;;;;4.38;2.60;;;9.50;99.90;;;;;;5144554;27;20252;-37
2021/05/20 07:30:15;;;;;;;2.63;2.42;;;9.40;99.90;;;;;;5145412;27;20317;-36
2021/05/20 07:32:46;;;;;;;3.05;2.53;;;9.40;99.90;;;;;;5146318;27;20183;-35
2021/05/20 07:35:17;;;;;;;2.78;2.60;;;9.40;99.90;;;;;;5143700;27;20239;-37
2021/05/20 07:37:47;;;;;;;3.97;2.13;;;9.40;99.90;;;;;;5145532;27;20199;-39
2021/05/20 07:40:20;;;;;;;2.40;2.20;;;9.40;99.90;;;;;;5145506;27;20204;-38
2021/05/20 07:42:51;;;;;;;3.47;2.60;;;9.40;99.90;;;;;;5145680;27;20268;-38
2021/05/20 07:45:24;;;;;;;3.63;2.20;;;9.40;99.90;;;;;;5143939;27;20188;-35
2021/05/20 07:47:56;;;;;;;2.60;2.40;;;9.30;99.90;;;;;;5144819;27;20295;-32
2021/05/20 07:50:26;;;;;;;3.80;2.83;;;9.30;99.90;;;;;;5144960;27;20225;-36
2021/05/20 07:52:57;;;;;;;2.50;2.40;;;9.30;99.90;;;;;;5145275;27;20203;-35
2021/05/20 07:55:29;;;;;;;3.45;2.20;;;9.40;99.90;;;;;;5144823;27;20260;-34
2021/05/20 07:57:59;;;;;;;3.70;2.55;;;9.50;99.90;;;;;;5145509;27;20196;-36
2021/05/20 08:00:30;;;;;;;4.72;2.80;;;9.60;99.90;;;;;;5144669;27;20218;-38
2021/05/20 08:03:04;;;;;;;2.65;2.45;;;9.70;99.90;;;;;;5145037;27;20276;-33
2021/05/20 08:05:38;;;;;;;4.50;2.80;;;9.60;99.90;;;;;;5144339;27;20233;-33
2021/05/20 08:08:18;;;;;;;2.65;2.45;;;9.60;99.90;;;;;;5141403;27;20202;-39
2021/05/20 08:10:53;;;;;;;4.65;2.60;;;9.60;99.90;;;;;;5135959;27;20211;-35
2021/05/20 08:13:24;;;;;;;4.60;2.95;;;9.70;99.90;;;;;;5145001;27;20203;-34
2021/05/20 08:15:57;;;;;;;2.45;2.20;;;9.50;99.90;;;;;;5144497;27;20234;-37
2021/05/20 08:18:29;;;;;;;2.95;2.70;;;9.50;99.90;;;;;;5145080;27;20224;-37
2021/05/20 08:21:01;;;;;;;5.75;2.55;;;9.50;99.90;;;;;;5144451;27;20294;-36
2021/05/20 08:23:33;;;;;;;3.53;2.75;;;9.50;99.90;;;;;;5143617;27;20203;-38
2021/05/20 08:26:07;;;;;;;4.47;2.95;;;9.60;99.90;;;;;;5143609;27;20548;-38
2021/05/20 08:28:38;;;;;;;3.00;2.30;;;9.50;99.90;;;;;;5143486;27;20203;-38
2021/05/20 08:31:08;;;;;;;4.45;3.10;;;9.40;99.90;;;;;;5144821;27;20195;-36
2021/05/20 08:33:39;;;;;;;4.10;2.40;;;9.20;99.90;;;;;;5144214;27;20269;-36
2021/05/20 08:36:10;;;;;;;3.22;2.70;;;9.10;99.90;;;;;;5143996;27;20242;-36
2021/05/20 08:38:41;;;;;;;2.83;2.45;;;9.10;99.90;;;;;;5143669;27;20191;-36
2021/05/20 08:41:13;;;;;;;4.63;3.25;;;9.00;99.90;;;;;;5144744;27;20627;-38
2021/05/20 08:43:43;;;;;;;2.72;2.53;;;9.00;99.90;;;;;;5143065;27;20251;-38
2021/05/20 08:46:14;;;;;;;3.05;2.85;;;8.90;99.90;;;;;;5144105;27;20215;-38
2021/05/20 08:48:45;;;;;;;3.47;3.15;;;8.80;99.90;;;;;;5143888;27;20303;-37
2021/05/20 08:51:16;;;;;;;5.45;2.60;;;8.70;99.90;;;;;;5144035;27;20196;-33
2021/05/20 08:53:48;;;;;;;3.08;2.88;;;8.70;99.90;;;;;;5143914;27;20203;-37
2021/05/20 08:56:21;;;;;;;4.50;2.90;;;8.60;99.90;;;;;;5143181;27;20259;-33
2021/05/20 08:58:52;;;;;;;3.17;2.88;;;8.50;99.90;;;;;;5142475;27;20220;-36
2021/05/20 09:01:36;;;;;;;4.60;3.03;;;8.50;99.90;;;;;;5144653;27;20294;-33
2021/05/20 09:04:08;;;;;;;2.65;2.45;;;8.40;99.90;;;;;;5143990;27;20195;-34
2021/05/20 09:06:44;;;;;;;2.30;2.10;;;8.30;99.90;;;;;;5142681;27;20199;-37
2021/05/20 09:09:17;;;;;;;2.95;2.65;;;8.20;99.90;;;;;;5127883;27;20191;-33
2021/05/20 09:11:53;;;;;;;4.25;3.10;;;8.10;99.90;;;;;;5143894;27;20199;-35
2021/05/20 09:14:31;;;;;;;3.00;2.60;;;8.10;99.90;;;;;;5141997;27;20195;-36
2021/05/20 09:17:12;;;;;;;4.32;3.22;;;8.00;99.90;;;;;;5143779;27;20232;-38
2021/05/20 09:19:45;;;;;;;3.67;3.00;;;8.00;99.90;;;;;;5143831;27;20179;-38
2021/05/20 09:22:16;;;;;;;5.35;2.58;;;7.90;99.90;;;;;;5143292;27;20194;-38
2021/05/20 09:24:49;;;;;;;3.40;2.80;;;7.90;99.90;;;;;;5143422;27;20195;-37
2021/05/20 09:27:34;;;;;;;2.83;2.60;;;7.80;99.90;;;;;;5127740;27;20195;-36
2021/05/20 09:30:21;;;;;;;3.58;2.60;;;7.80;99.90;;;;;;5142736;27;20199;-34
2021/05/20 09:32:54;;;;;;;3.20;2.80;;;7.70;99.90;;;;;;5143497;27;20255;-39
2021/05/20 09:35:27;;;;;;;3.85;2.78;;;7.70;99.90;;;;;;5126891;27;20207;-37
2021/05/20 09:38:01;;;;;;;4.10;2.88;;;7.70;99.90;;;;;;5138492;28;20195;-33
2021/05/20 09:40:37;;;;;;;2.70;2.50;;;7.60;99.90;;;;;;5143443;28;20586;-35
2021/05/20 09:43:19;;;;;;;2.80;2.50;;;7.50;99.90;;;;;;5136666;28;20643;-35
2021/05/20 09:45:53;;;;;;;3.53;2.65;;;7.50;99.90;;;;;;5142183;28;20199;-37
2021/05/20 09:48:26;;;;;;;2.90;2.70;;;7.40;99.90;;;;;;5142944;28;20235;-34
2021/05/20 09:50:58;;;;;;;3.95;3.28;;;7.40;99.90;;;;;;5142497;28;20241;-34
2021/05/20 09:53:30;;;;;;;3.10;2.40;;;7.40;99.90;;;;;;5143504;27;20234;-36
2021/05/20 09:56:02;;;;;;;3.60;3.00;;;7.40;99.90;;;;;;5143514;28;20287;-35
2021/05/20 09:58:34;;;;;;;2.40;2.20;;;7.20;99.90;;;;;;5142524;28;20211;-38
2021/05/20 10:01:17;;;;;;;3.65;3.33;;;7.20;99.90;;;;;;5143567;28;20226;-35
2021/05/20 10:03:53;;;;;;;4.10;3.60;;;7.30;99.90;;;;;;5142928;28;20203;-35
2021/05/20 10:06:36;;;;;;;5.07;3.70;;;7.30;99.90;;;;;;5142704;28;20226;-36
2021/05/20 10:09:08;;;;;;;3.10;2.80;;;7.20;99.90;;;;;;5142595;28;20228;-36
2021/05/20 10:11:39;;;;;;;3.85;3.00;;;7.20;99.90;;;;;;5142401;28;20241;-35
2021/05/20 10:14:11;;;;;;;4.15;3.50;;;7.20;99.90;;;;;;5142611;28;20188;-38
2021/05/20 10:16:42;;;;;;;3.97;3.22;;;7.10;99.90;;;;;;5142808;28;20227;-37
2021/05/20 10:19:13;;;;;;;3.30;3.00;;;7.10;99.90;;;;;;5142638;28;20218;-37
2021/05/20 10:21:46;;;;;;;3.10;2.70;;;7.10;99.90;;;;;;5142532;28;20225;-36
2021/05/20 10:24:17;;;;;;;6.05;3.53;;;7.10;99.90;;;;;;5142797;28;20199;-33
2021/05/20 10:26:48;;;;;;;2.92;2.63;;;7.00;99.90;;;;;;5137430;28;20275;-37
2021/05/20 10:29:20;;;;;;;3.33;3.03;;;6.80;99.90;;;;;;5127719;28;20198;-37
2021/05/20 10:31:50;;;;;;;3.78;3.47;;;6.80;99.90;;;;;;5142640;28;20225;-35
2021/05/20 10:34:21;;;;;;;4.57;3.15;;;6.90;99.90;;;;;;5142654;28;20214;-36
2021/05/20 10:37:03;;;;;;;2.95;2.75;;;6.90;99.90;;;;;;5141939;28;20280;-37
2021/05/20 10:39:34;;;;;;;5.35;3.60;;;6.80;99.90;;;;;;5142167;28;20300;-34
2021/05/20 10:42:04;;;;;;;5.03;3.80;;;6.90;99.90;;;;;;5143051;28;20199;-34
2021/05/20 10:44:36;;;;;;;6.05;3.55;;;6.80;99.90;;;;;;5142147;28;20190;-34
2021/05/20 10:47:08;;;;;;;4.22;3.78;;;6.90;99.90;;;;;;5143602;27;20431;-37
2021/05/20 10:50:01;;;;;;;3.55;3.25;;;7.00;99.90;;;;;;5145993;27;20199;-35
2021/05/20 10:52:46;;;;;;;3.60;3.30;;;7.00;99.90;;;;;;5145878;27;20203;-37
2021/05/20 10:55:17;;;;;;;3.60;3.30;;;7.20;99.90;;;;;;5143853;27;20225;-37
2021/05/20 10:57:58;;;;;;;7.13;3.83;;;7.10;99.90;;;;;;5145833;27;20210;-35
2021/05/20 11:00:41;;;;;;;4.25;3.80;;;7.30;99.90;;;;;;5140624;27;20188;-36
2021/05/20 11:03:12;;;;;;;6.50;3.28;;;7.30;99.90;;;;;;5146341;27;20238;-34
2021/05/20 11:05:57;;;;;;;3.20;2.88;;;7.40;99.90;;;;;;5146280;27;20259;-33
2021/05/20 11:08:54;;;;;;;4.10;3.70;;;7.40;99.90;;;;;;5145028;27;20214;-36
2021/05/20 11:11:46;;;;;;;5.45;3.25;;;7.40;99.90;;;;;;5122291;27;20211;-35
2021/05/20 11:14:37;;;;;;;3.67;3.38;;;7.50;99.90;;;;;;5145403;27;20207;-33
2021/05/20 11:17:39;;;;;;;5.05;3.67;;;7.50;99.90;;;;;;5146095;27;20219;-33
2021/05/20 11:20:45;;;;;;;3.22;2.92;;;7.60;99.90;;;;;;5145566;27;20214;-37
2021/05/20 11:23:30;;;;;;;4.53;3.60;;;7.70;99.90;;;;;;5145525;27;20338;-34
2021/05/20 11:26:06;;;;;;;4.78;3.72;;;7.80;99.90;;;;;;5144283;27;20227;-35
2021/05/20 11:29:05;;;;;;;3.85;2.97;;;7.80;99.90;;;;;;5143382;27;20194;-33
2021/05/20 11:31:36;;;;;;;3.65;3.35;;;7.80;99.90;;;;;;5144760;27;20211;-37
2021/05/20 11:36:54;;;;;;;4.53;3.53;;;7.80;99.90;;;;;;5143415;27;20252;-35
2021/05/20 11:39:25;;;;;;;5.13;3.10;;;7.80;99.90;;;;;;5144916;27;20244;-37
2021/05/20 11:41:57;;;;;;;4.10;3.35;;;7.80;99.90;;;;;;5145452;27;20206;-35
2021/05/20 11:44:29;;;;;;;4.22;3.75;;;7.80;99.90;;;;;;5144652;27;20199;-37
2021/05/20 11:47:08;;;;;;;3.60;3.30;;;7.80;99.90;;;;;;5145292;27;20219;-34
2021/05/20 11:49:42;;;;;;;5.88;3.45;;;7.80;99.90;;;;;;5143863;27;20263;-35
2021/05/20 11:52:13;;;;;;;3.88;3.58;;;7.80;99.90;;;;;;5145209;27;20219;-35
2021/05/20 11:54:46;;;;;;;3.40;3.10;;;7.80;99.90;;;;;;5145240;27;20299;-35
2021/05/20 11:57:18;;;;;;;6.07;3.72;;;7.90;99.90;;;;;;5145074;27;20287;-34
2021/05/20 11:59:51;;;;;;;3.55;3.25;;;7.90;99.90;;;;;;5141250;27;20206;-35
2021/05/20 12:02:23;;;;;;;3.92;3.63;;;8.00;99.90;;;;;;5145236;27;20279;-36
2021/05/20 12:05:01;;;;;;;4.40;3.35;;;8.00;99.90;;;;;;5144743;27;20282;-35
2021/05/20 12:07:32;;;;;;;4.10;3.30;;;8.00;99.90;;;;;;5144298;27;20187;-36
2021/05/20 12:10:12;;;;;;;4.20;3.55;;;8.00;99.90;;;;;;5144396;27;20251;-33
2021/05/20 12:12:45;;;;;;;4.13;3.80;;;8.10;99.90;;;;;;5144830;27;20198;-37
2021/05/20 12:15:17;;;;;;;3.85;3.53;;;8.10;99.90;;;;;;5143393;27;20191;-37
2021/05/20 12:17:49;;;;;;;4.38;3.35;;;8.20;99.90;;;;;;5145094;27;20555;-34
2021/05/20 12:20:21;;;;;;;5.05;3.55;;;8.20;99.90;;;;;;5144346;27;20206;-35
2021/05/20 12:22:52;;;;;;;4.18;3.28;;;8.20;99.90;;;;;;5144830;27;20183;-38
2021/05/20 12:25:24;;;;;;;3.53;3.20;;;8.20;99.90;;;;;;5144673;27;20196;-36
2021/05/20 12:27:56;;;;;;;3.70;3.40;;;8.20;99.90;;;;;;5140047;27;20284;-33
2021/05/20 12:30:29;;;;;;;3.80;3.50;;;8.20;99.90;;;;;;5143151;27;20199;-36
2021/05/20 12:33:08;;;;;;;3.95;3.65;;;8.20;99.90;;;;;;5144754;27;20195;-36
2021/05/20 12:35:43;;;;;;;4.28;3.88;;;8.10;99.90;;;;;;5144044;27;20283;-34
2021/05/20 12:38:15;;;;;;;3.85;3.50;;;8.00;99.90;;;;;;5144392;27;20327;-37
2021/05/20 12:40:47;;;;;;;4.55;4.07;;;7.90;99.90;;;;;;5143768;27;20207;-35
2021/05/20 12:43:20;;;;;;;3.60;3.30;;;8.00;99.90;;;;;;5129326;27;20218;-37
2021/05/20 12:45:54;;;;;;;4.45;3.83;;;7.90;99.90;;;;;;5143415;27;20224;-34
2021/05/20 12:48:31;;;;;;;5.57;3.60;;;7.90;99.90;;;;;;5144272;27;20563;-36
2021/05/20 12:51:04;;;;;;;4.47;4.00;;;8.00;99.90;;;;;;5142983;27;20236;-36
2021/05/20 12:53:41;;;;;;;5.05;3.58;;;8.00;99.90;;;;;;5143262;27;20207;-37
2021/05/20 12:56:32;;;;;;;4.00;3.65;;;8.00;99.90;;;;;;5130702;27;20645;-37
2021/05/20 12:59:05;;;;;;;6.85;3.80;;;8.00;99.90;;;;;;5138555;27;20211;-37
2021/05/20 13:01:37;;;;;;;4.38;3.80;;;8.10;99.90;;;;;;5143231;27;20225;-35
2021/05/20 13:04:13;;;;;;;5.63;3.80;;;8.10;99.90;;;;;;5143664;27;20206;-34
2021/05/20 13:06:45;;;;;;;4.85;4.20;;;8.20;99.90;;;;;;5143575;27;20203;-36
2021/05/20 13:09:16;;;;;;;6.43;3.75;;;8.20;99.90;;;;;;5143560;27;20244;-37
2021/05/20 13:11:49;;;;;;;4.22;3.92;;;8.20;99.90;;;;;;5143830;27;20270;-34
2021/05/20 13:14:24;;;;;;;4.93;4.30;;;8.30;99.90;;;;;;5143214;27;20199;-34
2021/05/20 13:17:01;;;;;;;3.92;3.65;;;8.30;99.90;;;;;;5143367;27;20218;-35
2021/05/20 13:22:27;;;;;;;3.70;3.35;;;8.50;99.90;;;;;;5134075;27;20219;-35
2021/05/20 13:25:18;;;;;;;4.13;3.72;;;8.70;99.90;;;;;;5143339;27;20191;-37
2021/05/20 13:27:50;;;;;;;4.68;3.70;;;8.80;99.90;;;;;;5141478;27;20207;-37